Time;durP1;ratioP1;P1;durP2;ratioP2;P2;SDS_P1;SDS_P2;PMS_P1;PMS_P2;Temp;Humidity;BMP_temperature;BMP_pressure;BME280_temperature;BME280_humidity;BME280_pressure;Samples;Min_cycle;Max_cycle;Signal;HPM_P1;HPM_P2
2023/04/25 00:00:30;;;;;;;0.93;0.93;;;;;;;;;;5050383;28;20291;-63
2023/04/25 00:02:58;;;;;;;1.13;1.03;;;;;;;;;;5060886;28;20235;-62
2023/04/25 00:05:27;;;;;;;1.00;1.00;;;;;;;;;;5067669;28;20211;-62
2023/04/25 00:07:54;;;;;;;1.43;1.33;;;;;;;;;;5050880;28;20213;-62
2023/04/25 00:10:22;;;;;;;1.17;1.10;;;;;;;;;;5068341;28;20200;-63
2023/04/25 00:12:49;;;;;;;1.20;1.10;;;;;;;;;;5057013;28;20207;-62
2023/04/25 00:15:17;;;;;;;1.60;1.50;;;;;;;;;;5067486;28;20206;-62
2023/04/25 00:17:45;;;;;;;1.30;1.27;;;;;;;;;;5062196;28;20268;-63
2023/04/25 00:20:13;;;;;;;1.10;1.10;;;;;;;;;;5066159;28;20211;-63
2023/04/25 00:22:40;;;;;;;1.07;1.03;;;;;;;;;;5056978;28;20220;-62
2023/04/25 00:25:07;;;;;;;1.10;1.10;;;;;;;;;;5048895;28;20814;-63
2023/04/25 00:27:36;;;;;;;1.30;1.30;;;;;;;;;;5050403;28;20206;-63
2023/04/25 00:30:03;;;;;;;3.67;1.80;;;;;;;;;;5054909;28;20215;-63
2023/04/25 00:32:30;;;;;;;1.67;1.57;;;;;;;;;;5060158;28;20211;-62
2023/04/25 00:34:57;;;;;;;1.30;1.30;;;;;;;;;;5064764;28;20631;-63
2023/04/25 00:37:25;;;;;;;1.50;1.40;;;;;;;;;;5053604;28;20673;-63
2023/04/25 00:39:53;;;;;;;1.53;1.53;;;;;;;;;;5048065;28;20272;-63
2023/04/25 00:42:20;;;;;;;2.27;1.93;;;;;;;;;;5049111;28;20372;-63
2023/04/25 00:44:49;;;;;;;2.40;1.60;;;;;;;;;;5048966;28;20231;-63
2023/04/25 00:47:16;;;;;;;1.67;1.57;;;;;;;;;;5052007;28;20203;-63
2023/04/25 00:49:43;;;;;;;2.13;1.30;;;;;;;;;;5067648;28;20829;-63
2023/04/25 00:52:11;;;;;;;1.60;1.50;;;;;;;;;;5063511;28;20208;-62
2023/04/25 00:54:38;;;;;;;1.70;1.63;;;;;;;;;;5049394;28;20211;-62
2023/04/25 00:57:05;;;;;;;1.80;1.70;;;;;;;;;;5063649;28;20203;-62
2023/04/25 00:59:32;;;;;;;1.70;1.60;;;;;;;;;;5065145;28;20207;-62
2023/04/25 01:02:01;;;;;;;1.83;1.73;;;;;;;;;;5059408;28;20217;-62
2023/04/25 01:04:29;;;;;;;1.93;1.83;;;;;;;;;;5048576;28;20253;-62
2023/04/25 01:06:56;;;;;;;1.97;1.87;;;;;;;;;;5055173;28;20293;-63
2023/04/25 01:09:24;;;;;;;1.33;1.23;;;;;;;;;;5067290;28;20210;-63
2023/04/25 01:11:51;;;;;;;1.73;1.63;;;;;;;;;;5059585;28;20583;-62
2023/04/25 01:14:18;;;;;;;2.33;1.77;;;;;;;;;;5047527;28;20211;-62
2023/04/25 01:16:46;;;;;;;1.83;1.73;;;;;;;;;;5048391;28;20204;-62
2023/04/25 01:19:17;;;;;;;3.93;2.00;;;;;;;;;;5058258;28;20238;-62
2023/04/25 01:21:46;;;;;;;1.60;1.60;;;;;;;;;;5067129;28;20195;-62
2023/04/25 01:24:13;;;;;;;1.70;1.40;;;;;;;;;;5066829;28;20243;-62
2023/04/25 01:26:44;;;;;;;2.07;1.97;;;;;;;;;;5062881;28;20203;-62
2023/04/25 01:29:11;;;;;;;1.87;1.77;;;;;;;;;;5047358;28;20237;-62
2023/04/25 01:34:55;;;;;;;1.87;1.77;;;;;;;;;;5044725;28;20275;-62
2023/04/25 01:37:23;;;;;;;2.37;1.70;;;;;;;;;;5064852;28;20222;-62
2023/04/25 01:39:51;;;;;;;2.00;1.90;;;;;;;;;;5051301;28;20214;-62
2023/04/25 01:42:18;;;;;;;1.43;1.33;;;;;;;;;;5046960;28;20239;-62
2023/04/25 01:44:45;;;;;;;2.77;1.90;;;;;;;;;;5047583;28;21034;-63
2023/04/25 01:47:12;;;;;;;2.70;1.60;;;;;;;;;;5047585;28;20226;-62
2023/04/25 01:49:39;;;;;;;1.90;1.80;;;;;;;;;;5055144;28;20207;-63
2023/04/25 01:52:06;;;;;;;2.00;1.90;;;;;;;;;;5047628;28;20287;-63
2023/04/25 01:54:34;;;;;;;3.57;2.03;;;;;;;;;;5056642;28;20214;-62
2023/04/25 01:57:01;;;;;;;2.07;1.77;;;;;;;;;;5066684;28;20215;-62
2023/04/25 01:59:28;;;;;;;1.50;1.40;;;;;;;;;;5058470;28;20214;-62
2023/04/25 02:01:55;;;;;;;1.70;1.60;;;;;;;;;;5047405;28;20312;-62
2023/04/25 02:04:22;;;;;;;3.60;1.83;;;;;;;;;;5057409;28;20223;-62
2023/04/25 02:06:49;;;;;;;1.90;1.80;;;;;;;;;;5047563;28;20200;-63
2023/04/25 02:09:16;;;;;;;1.90;1.80;;;;;;;;;;5050269;28;20215;-62
2023/04/25 02:11:45;;;;;;;1.33;1.33;;;;;;;;;;5054441;28;20206;-62
2023/04/25 02:14:12;;;;;;;1.77;1.67;;;;;;;;;;5066134;28;20241;-62
2023/04/25 02:16:39;;;;;;;1.60;1.50;;;;;;;;;;5069395;28;20203;-62
2023/04/25 02:19:06;;;;;;;2.10;2.00;;;;;;;;;;5051041;28;20613;-62
2023/04/25 02:21:35;;;;;;;1.47;1.37;;;;;;;;;;5068927;28;20262;-62
2023/04/25 02:24:02;;;;;;;1.70;1.60;;;;;;;;;;5070167;28;20390;-62
2023/04/25 02:26:29;;;;;;;4.10;1.97;;;;;;;;;;5066834;28;20230;-62
2023/04/25 02:28:58;;;;;;;1.83;1.73;;;;;;;;;;5050950;28;20591;-62
2023/04/25 02:31:25;;;;;;;1.90;1.80;;;;;;;;;;5057450;28;20326;-62
2023/04/25 02:33:52;;;;;;;1.87;1.77;;;;;;;;;;5070563;28;20214;-62
2023/04/25 02:36:19;;;;;;;1.40;1.40;;;;;;;;;;5050446;28;20265;-63
2023/04/25 02:38:46;;;;;;;1.90;1.80;;;;;;;;;;5050449;28;20282;-62
2023/04/25 02:41:13;;;;;;;2.07;1.87;;;;;;;;;;5050409;28;20232;-62
2023/04/25 02:43:40;;;;;;;1.50;1.37;;;;;;;;;;5052456;28;20228;-63
2023/04/25 02:46:09;;;;;;;2.33;1.57;;;;;;;;;;5053096;28;20262;-62
2023/04/25 02:48:36;;;;;;;2.23;2.13;;;;;;;;;;5068570;28;20295;-62
2023/04/25 02:51:03;;;;;;;1.97;1.53;;;;;;;;;;5052899;28;20211;-62
2023/04/25 02:53:30;;;;;;;1.97;1.87;;;;;;;;;;5051844;28;20223;-62
2023/04/25 02:55:58;;;;;;;1.87;1.77;;;;;;;;;;5066536;28;20214;-61
2023/04/25 02:58:26;;;;;;;2.00;1.90;;;;;;;;;;5069413;28;20266;-62
2023/04/25 03:00:53;;;;;;;4.57;1.90;;;;;;;;;;5058773;28;20860;-62
2023/04/25 03:03:21;;;;;;;2.27;2.07;;;;;;;;;;5061085;28;20215;-62
2023/04/25 03:05:48;;;;;;;2.13;2.03;;;;;;;;;;5061329;28;20342;-63
2023/04/25 03:08:15;;;;;;;1.97;1.87;;;;;;;;;;5070010;28;20605;-62
2023/04/25 03:10:42;;;;;;;1.83;1.83;;;;;;;;;;5049910;28;20215;-62
2023/04/25 03:13:10;;;;;;;1.83;1.77;;;;;;;;;;5053744;28;20199;-63
2023/04/25 03:15:37;;;;;;;2.50;2.30;;;;;;;;;;5051269;28;20207;-63
2023/04/25 03:18:04;;;;;;;3.10;1.70;;;;;;;;;;5049889;28;20613;-62
2023/04/25 03:20:33;;;;;;;2.73;2.00;;;;;;;;;;5066876;28;20245;-63
2023/04/25 03:23:00;;;;;;;1.60;1.50;;;;;;;;;;5070067;28;20230;-62
2023/04/25 03:25:27;;;;;;;1.73;1.63;;;;;;;;;;5068665;28;20705;-62
2023/04/25 03:27:54;;;;;;;4.40;2.43;;;;;;;;;;5069622;28;20269;-63
2023/04/25 03:30:21;;;;;;;2.07;1.97;;;;;;;;;;5055265;28;20441;-62
2023/04/25 03:32:48;;;;;;;2.10;2.00;;;;;;;;;;5057207;28;20379;-62
2023/04/25 03:35:15;;;;;;;2.87;2.43;;;;;;;;;;5069800;28;20303;-62
2023/04/25 03:37:45;;;;;;;2.50;2.30;;;;;;;;;;5066189;28;20248;-61
2023/04/25 03:40:12;;;;;;;2.47;2.30;;;;;;;;;;5060438;28;20211;-62
2023/04/25 03:42:39;;;;;;;4.97;2.80;;;;;;;;;;5068642;28;20235;-62
2023/04/25 03:45:07;;;;;;;2.30;2.10;;;;;;;;;;5054607;28;20219;-62
2023/04/25 03:47:34;;;;;;;3.47;2.10;;;;;;;;;;5068782;28;20210;-62
2023/04/25 03:50:02;;;;;;;2.47;2.00;;;;;;;;;;5063756;28;20249;-61
2023/04/25 03:52:29;;;;;;;2.67;2.37;;;;;;;;;;5065244;28;20258;-62
2023/04/25 03:54:58;;;;;;;3.43;1.80;;;;;;;;;;5059603;28;20188;-62
2023/04/25 03:57:25;;;;;;;2.20;1.73;;;;;;;;;;5060122;28;20212;-62
2023/04/25 03:59:52;;;;;;;2.30;2.20;;;;;;;;;;5056473;28;20262;-62
2023/04/25 04:02:19;;;;;;;2.67;2.50;;;;;;;;;;5048149;28;20674;-61
2023/04/25 04:04:46;;;;;;;3.10;2.80;;;;;;;;;;5047902;28;20739;-62
2023/04/25 04:07:13;;;;;;;3.70;3.30;;;;;;;;;;5051138;28;20204;-62
2023/04/25 04:09:40;;;;;;;4.17;2.67;;;;;;;;;;5056776;28;20218;-62
2023/04/25 04:12:09;;;;;;;2.60;2.40;;;;;;;;;;5049085;28;20208;-62
2023/04/25 04:14:36;;;;;;;4.33;2.73;;;;;;;;;;5056983;28;20673;-62
2023/04/25 04:17:03;;;;;;;3.50;2.83;;;;;;;;;;5061834;28;20217;-62
2023/04/25 04:19:30;;;;;;;3.40;3.10;;;;;;;;;;5057765;28;20211;-62
2023/04/25 04:21:57;;;;;;;6.40;3.80;;;;;;;;;;5068365;28;20203;-63
2023/04/25 04:24:24;;;;;;;3.90;3.47;;;;;;;;;;5057675;28;20281;-63
2023/04/25 04:26:52;;;;;;;6.73;3.67;;;;;;;;;;5069671;28;20280;-63
2023/04/25 04:29:21;;;;;;;3.40;2.93;;;;;;;;;;5065781;28;20199;-62
2023/04/25 04:31:49;;;;;;;2.83;2.57;;;;;;;;;;5059968;28;20281;-63
2023/04/25 04:34:17;;;;;;;4.83;3.07;;;;;;;;;;5052359;28;20312;-63
2023/04/25 04:36:45;;;;;;;5.93;3.33;;;;;;;;;;5067984;28;20199;-63
2023/04/25 04:39:13;;;;;;;3.43;2.83;;;;;;;;;;5067584;28;20207;-63
2023/04/25 04:41:40;;;;;;;4.77;2.77;;;;;;;;;;5068096;28;20316;-61
2023/04/25 04:44:08;;;;;;;2.47;2.03;;;;;;;;;;5066001;28;20229;-61
2023/04/25 04:46:41;;;;;;;2.53;2.33;;;;;;;;;;5048314;28;20227;-61
2023/04/25 04:49:08;;;;;;;3.20;2.07;;;;;;;;;;5064184;28;20203;-61
2023/04/25 04:51:36;;;;;;;4.10;2.80;;;;;;;;;;5067730;28;20203;-61
2023/04/25 04:54:03;;;;;;;3.50;2.10;;;;;;;;;;5067199;28;20689;-61
2023/04/25 04:56:31;;;;;;;5.70;2.13;;;;;;;;;;5047990;28;20207;-63
2023/04/25 04:58:58;;;;;;;2.10;1.80;;;;;;;;;;5061780;28;20671;-63
2023/04/25 05:01:26;;;;;;;2.87;1.73;;;;;;;;;;5056529;28;20214;-63
2023/04/25 05:03:59;;;;;;;3.73;1.80;;;;;;;;;;5047453;28;20211;-63
2023/04/25 05:06:26;;;;;;;5.20;2.43;;;;;;;;;;5046840;28;20215;-63
2023/04/25 05:08:53;;;;;;;6.20;2.07;;;;;;;;;;5054276;28;20223;-63
2023/04/25 05:11:21;;;;;;;1.97;1.87;;;;;;;;;;5058838;28;20874;-62
2023/04/25 05:13:48;;;;;;;2.23;2.03;;;;;;;;;;5064137;28;20213;-62
2023/04/25 05:16:15;;;;;;;2.93;2.30;;;;;;;;;;5058478;28;20286;-62
2023/04/25 05:18:42;;;;;;;2.33;2.23;;;;;;;;;;5048154;28;20210;-63
2023/04/25 05:21:10;;;;;;;7.87;2.57;;;;;;;;;;5066122;28;20215;-62
2023/04/25 05:23:37;;;;;;;5.07;2.07;;;;;;;;;;5064808;28;20233;-63
2023/04/25 05:26:05;;;;;;;8.50;3.07;;;;;;;;;;5046668;28;20235;-62
2023/04/25 05:28:32;;;;;;;3.97;2.37;;;;;;;;;;5047772;28;20420;-63
2023/04/25 05:30:59;;;;;;;8.17;2.77;;;;;;;;;;5045461;28;20788;-63
2023/04/25 05:33:26;;;;;;;5.77;3.10;;;;;;;;;;5046806;28;20368;-62
2023/04/25 05:35:53;;;;;;;6.77;2.70;;;;;;;;;;5062801;28;20203;-63
2023/04/25 05:38:22;;;;;;;4.60;2.50;;;;;;;;;;5064169;28;20743;-63
2023/04/25 05:40:49;;;;;;;4.97;2.63;;;;;;;;;;5056037;28;20238;-63
2023/04/25 05:43:16;;;;;;;6.13;2.67;;;;;;;;;;5061513;28;20862;-63
2023/04/25 05:45:43;;;;;;;3.00;2.43;;;;;;;;;;5066392;28;20235;-61
2023/04/25 05:48:10;;;;;;;2.60;2.40;;;;;;;;;;5054989;28;20211;-61
2023/04/25 05:50:37;;;;;;;3.80;1.80;;;;;;;;;;5058531;28;20443;-60
2023/04/25 05:53:05;;;;;;;4.40;2.17;;;;;;;;;;5070275;28;20281;-61
2023/04/25 05:55:34;;;;;;;4.07;2.33;;;;;;;;;;5062131;28;20632;-60
2023/04/25 05:58:01;;;;;;;2.37;2.17;;;;;;;;;;5051263;28;20215;-60
2023/04/25 06:00:28;;;;;;;2.30;1.70;;;;;;;;;;5063017;28;20290;-61
2023/04/25 06:02:55;;;;;;;4.40;1.73;;;;;;;;;;5051130;28;20215;-61
2023/04/25 06:05:22;;;;;;;5.23;2.10;;;;;;;;;;5050744;28;20300;-60
2023/04/25 06:07:49;;;;;;;4.63;1.90;;;;;;;;;;5061333;28;20261;-63
2023/04/25 06:10:16;;;;;;;2.73;1.53;;;;;;;;;;5065704;28;20215;-63
2023/04/25 06:12:45;;;;;;;3.70;2.20;;;;;;;;;;5051134;28;20211;-62
2023/04/25 06:15:12;;;;;;;1.70;1.60;;;;;;;;;;5052150;28;20208;-63
2023/04/25 06:17:39;;;;;;;1.77;1.50;;;;;;;;;;5051039;28;20215;-62
2023/04/25 06:20:07;;;;;;;1.63;1.40;;;;;;;;;;5055415;28;20653;-62
2023/04/25 06:22:34;;;;;;;5.20;2.10;;;;;;;;;;5070308;28;20227;-61
2023/04/25 06:25:03;;;;;;;1.60;1.40;;;;;;;;;;5067035;28;20760;-60
2023/04/25 06:27:30;;;;;;;1.77;1.07;;;;;;;;;;5050787;28;20208;-61
2023/04/25 06:29:59;;;;;;;1.77;1.50;;;;;;;;;;5052464;28;22115;-61
2023/04/25 06:32:27;;;;;;;2.20;1.80;;;;;;;;;;5070498;28;20214;-61
2023/04/25 06:34:54;;;;;;;2.17;1.50;;;;;;;;;;5069170;28;20203;-61
2023/04/25 06:37:21;;;;;;;1.67;1.57;;;;;;;;;;5050240;28;20207;-61
2023/04/25 06:39:48;;;;;;;2.23;1.77;;;;;;;;;;5062765;28;20207;-60
2023/04/25 06:42:15;;;;;;;1.90;1.33;;;;;;;;;;5061926;28;20261;-63
2023/04/25 06:44:42;;;;;;;3.00;1.60;;;;;;;;;;5050025;28;20675;-60
2023/04/25 06:47:11;;;;;;;1.67;1.53;;;;;;;;;;5066233;28;20207;-60
2023/04/25 06:49:38;;;;;;;2.27;1.83;;;;;;;;;;5070400;28;20215;-60
2023/04/25 06:52:05;;;;;;;2.90;1.73;;;;;;;;;;5054629;28;20593;-61
2023/04/25 06:54:32;;;;;;;2.57;2.07;;;;;;;;;;5070060;28;20211;-62
2023/04/25 06:57:00;;;;;;;5.23;1.97;;;;;;;;;;5060784;28;20199;-61
2023/04/25 06:59:27;;;;;;;2.37;1.43;;;;;;;;;;5049773;28;20208;-61
2023/04/25 07:01:54;;;;;;;2.30;2.03;;;;;;;;;;5049196;28;20212;-61
2023/04/25 07:04:23;;;;;;;2.30;1.90;;;;;;;;;;5061504;28;20214;-63
2023/04/25 07:06:50;;;;;;;3.67;1.73;;;;;;;;;;5069715;28;20254;-62
2023/04/25 07:09:17;;;;;;;1.60;1.50;;;;;;;;;;5069680;28;20364;-62
2023/04/25 07:11:44;;;;;;;1.80;1.70;;;;;;;;;;5070198;28;20740;-62
2023/04/25 07:14:11;;;;;;;4.23;1.80;;;;;;;;;;5070060;28;20215;-62
2023/04/25 07:16:38;;;;;;;3.10;2.03;;;;;;;;;;5069780;28;20214;-62
2023/04/25 07:19:05;;;;;;;4.60;2.23;;;;;;;;;;5069887;28;20584;-62
2023/04/25 07:21:33;;;;;;;4.20;1.87;;;;;;;;;;5069613;28;20228;-63
2023/04/25 07:24:01;;;;;;;7.90;2.10;;;;;;;;;;5069583;28;20284;-62
2023/04/25 07:26:28;;;;;;;3.17;2.00;;;;;;;;;;5069761;28;20261;-62
2023/04/25 07:28:55;;;;;;;2.17;1.63;;;;;;;;;;5069277;28;20304;-61
2023/04/25 07:31:26;;;;;;;3.83;1.33;;;;;;;;;;5069616;28;20294;-61
2023/04/25 07:33:53;;;;;;;2.10;1.83;;;;;;;;;;5069487;28;20207;-64
2023/04/25 07:36:20;;;;;;;1.90;1.80;;;;;;;;;;5069510;28;20214;-63
2023/04/25 07:38:49;;;;;;;3.63;2.08;;;;;;;;;;5068993;28;20854;-62
2023/04/25 07:41:16;;;;;;;1.98;1.85;;;;;;;;;;5069495;28;20242;-62
2023/04/25 07:43:43;;;;;;;3.88;1.75;;;;;;;;;;5069666;28;20211;-62
2023/04/25 07:46:10;;;;;;;3.90;1.60;;;;;;;;;;5056310;28;20705;-61
2023/04/25 07:48:37;;;;;;;3.33;1.80;;;;;;;;;;5049165;28;20355;-62
2023/04/25 07:51:05;;;;;;;3.40;1.83;;;;;;;;;;5059801;28;20219;-61
2023/04/25 07:53:32;;;;;;;2.47;1.45;;;;;;;;;;5068749;28;20529;-61
2023/04/25 07:56:00;;;;;;;3.53;1.65;;;;;;;;;;5068844;28;20268;-61
2023/04/25 07:58:27;;;;;;;2.63;2.05;;;;;;;;;;5060011;28;20204;-62
2023/04/25 08:00:54;;;;;;;2.13;1.15;;;;;;;;;;5052306;28;20264;-63
2023/04/25 08:03:22;;;;;;;5.40;1.42;;;;;;;;;;5048842;28;20207;-63
2023/04/25 08:05:49;;;;;;;4.38;1.55;;;;;;;;;;5048839;28;20624;-63
2023/04/25 08:08:16;;;;;;;1.67;1.08;;;;;;;;;;5048637;28;20216;-63
2023/04/25 08:10:43;;;;;;;1.67;1.57;;;;;;;;;;5053428;28;20211;-60
2023/04/25 08:13:11;;;;;;;2.13;1.50;;;;;;;;;;5064740;28;20773;-65
2023/04/25 08:15:39;;;;;;;1.40;0.90;;;;;;;;;;5066189;28;20195;-67
2023/04/25 08:18:06;;;;;;;5.27;1.50;;;;;;;;;;5065985;28;20269;-63
2023/04/25 08:20:33;;;;;;;3.83;1.23;;;;;;;;;;5054338;28;20212;-63
2023/04/25 08:23:00;;;;;;;0.90;0.90;;;;;;;;;;5048326;28;20232;-64
2023/04/25 08:25:27;;;;;;;0.70;0.70;;;;;;;;;;5059350;28;20792;-63
2023/04/25 08:27:54;;;;;;;0.90;0.90;;;;;;;;;;5068318;28;20268;-63
2023/04/25 08:30:23;;;;;;;2.17;1.20;;;;;;;;;;5068001;28;20217;-62
2023/04/25 08:32:50;;;;;;;3.53;1.10;;;;;;;;;;5060737;28;20219;-61
2023/04/25 08:35:17;;;;;;;1.60;1.07;;;;;;;;;;5068090;28;20215;-62
2023/04/25 08:37:44;;;;;;;1.80;0.93;;;;;;;;;;5055631;28;20818;-62
2023/04/25 08:40:13;;;;;;;2.70;0.77;;;;;;;;;;5048174;28;20257;-63
2023/04/25 08:42:42;;;;;;;2.50;0.87;;;;;;;;;;5048204;28;20342;-63
2023/04/25 08:45:09;;;;;;;0.90;0.90;;;;;;;;;;5055338;28;20264;-63
2023/04/25 08:47:39;;;;;;;1.93;0.87;;;;;;;;;;5067633;28;20233;-65
2023/04/25 08:50:06;;;;;;;1.70;0.80;;;;;;;;;;5056688;28;20277;-62
2023/04/25 08:52:37;;;;;;;1.07;0.77;;;;;;;;;;5049203;28;20203;-64
2023/04/25 08:55:04;;;;;;;8.13;0.60;;;;;;;;;;5062835;28;20207;-63
2023/04/25 08:57:32;;;;;;;0.80;0.80;;;;;;;;;;5062509;28;20195;-62
2023/04/25 09:00:00;;;;;;;1.10;0.70;;;;;;;;;;5059557;28;20276;-63
2023/04/25 09:02:27;;;;;;;1.23;1.10;;;;;;;;;;5046603;28;20219;-63
2023/04/25 09:04:55;;;;;;;0.87;0.87;;;;;;;;;;5043658;28;20273;-63
2023/04/25 09:07:22;;;;;;;1.50;0.67;;;;;;;;;;5044088;28;20235;-62
2023/04/25 09:09:49;;;;;;;2.23;0.93;;;;;;;;;;5047237;28;20211;-62
2023/04/25 09:12:17;;;;;;;2.53;1.10;;;;;;;;;;5046546;28;20207;-61
2023/04/25 09:14:44;;;;;;;1.75;0.73;;;;;;;;;;5052864;28;20290;-62
2023/04/25 09:17:11;;;;;;;0.57;0.57;;;;;;;;;;5061132;28;20257;-62
2023/04/25 09:19:39;;;;;;;0.70;0.70;;;;;;;;;;5046991;28;20258;-62
2023/04/25 09:22:08;;;;;;;1.00;0.70;;;;;;;;;;5046768;28;20259;-62
2023/04/25 09:24:36;;;;;;;0.90;0.90;;;;;;;;;;5045546;28;20208;-62
2023/04/25 09:27:04;;;;;;;0.80;0.80;;;;;;;;;;5051023;28;20235;-62
2023/04/25 09:29:32;;;;;;;1.00;0.90;;;;;;;;;;5067029;28;20214;-62
2023/04/25 09:32:12;;;;;;;3.80;0.90;;;;;;;;;;5072840;28;20214;-62
2023/04/25 09:34:41;;;;;;;0.77;0.73;;;;;;;;;;5051545;28;20203;-62
2023/04/25 09:37:09;;;;;;;1.13;1.13;;;;;;;;;;5066818;28;20230;-62
2023/04/25 09:39:36;;;;;;;1.33;1.20;;;;;;;;;;5066697;28;20198;-61
2023/04/25 09:42:04;;;;;;;1.98;1.25;;;;;;;;;;5065941;28;20234;-62
2023/04/25 09:44:31;;;;;;;1.00;1.00;;;;;;;;;;5066908;28;20325;-62
2023/04/25 09:46:59;;;;;;;0.93;0.93;;;;;;;;;;5066672;28;20238;-61
2023/04/25 09:49:26;;;;;;;1.90;1.00;;;;;;;;;;5066652;28;20214;-62
2023/04/25 09:51:57;;;;;;;2.33;1.37;;;;;;;;;;5066756;28;20727;-62
2023/04/25 09:54:26;;;;;;;1.73;1.30;;;;;;;;;;5066231;28;20745;-62
2023/04/25 09:56:53;;;;;;;4.77;1.20;;;;;;;;;;5066550;28;20256;-62
2023/04/25 09:59:22;;;;;;;1.33;1.23;;;;;;;;;;5064718;28;20636;-62
2023/04/25 10:01:49;;;;;;;2.13;1.50;;;;;;;;;;5046671;28;20322;-62
2023/04/25 10:04:20;;;;;;;1.33;1.33;;;;;;;;;;5046346;28;20567;-62
2023/04/25 10:06:47;;;;;;;1.50;1.50;;;;;;;;;;5046304;28;20232;-62
2023/04/25 10:09:14;;;;;;;1.63;1.50;;;;;;;;;;5046895;28;20310;-62
2023/04/25 10:11:44;;;;;;;1.57;1.47;;;;;;;;;;5046903;28;20204;-62
2023/04/25 10:14:11;;;;;;;2.27;1.40;;;;;;;;;;5046427;28;20236;-62
2023/04/25 10:16:39;;;;;;;2.50;1.40;;;;;;;;;;5046579;28;20257;-62
2023/04/25 10:19:06;;;;;;;1.77;1.67;;;;;;;;;;5045713;28;20460;-60
2023/04/25 10:21:35;;;;;;;2.23;2.03;;;;;;;;;;5046453;28;20215;-61
2023/04/25 10:24:02;;;;;;;1.40;1.27;;;;;;;;;;5046307;28;20227;-60
2023/04/25 10:26:29;;;;;;;2.13;1.70;;;;;;;;;;5048943;28;20807;-60
2023/04/25 10:28:58;;;;;;;2.80;2.27;;;;;;;;;;5061008;28;20313;-60
2023/04/25 10:31:26;;;;;;;1.70;1.60;;;;;;;;;;5063040;28;20657;-61
2023/04/25 10:33:53;;;;;;;2.90;1.63;;;;;;;;;;5065979;28;20211;-61
2023/04/25 10:36:22;;;;;;;1.77;1.60;;;;;;;;;;5067887;28;20579;-61
2023/04/25 10:38:50;;;;;;;2.80;1.70;;;;;;;;;;5069890;28;20621;-61
2023/04/25 10:41:19;;;;;;;1.80;1.70;;;;;;;;;;5069841;28;20235;-61
2023/04/25 10:43:46;;;;;;;5.77;2.00;;;;;;;;;;5070097;28;20214;-61
2023/04/25 10:46:19;;;;;;;2.63;1.40;;;;;;;;;;5050390;28;20265;-61
2023/04/25 10:48:48;;;;;;;2.03;1.93;;;;;;;;;;5053333;28;20329;-61
2023/04/25 10:51:18;;;;;;;2.20;1.70;;;;;;;;;;5069067;28;20219;-61
2023/04/25 10:53:45;;;;;;;2.33;1.30;;;;;;;;;;5069406;28;20215;-61
2023/04/25 10:56:13;;;;;;;2.37;2.00;;;;;;;;;;5069263;28;20613;-60
2023/04/25 10:58:43;;;;;;;1.73;1.63;;;;;;;;;;5069279;28;20293;-61
2023/04/25 11:01:10;;;;;;;3.23;1.40;;;;;;;;;;5069771;28;20207;-61
2023/04/25 11:03:42;;;;;;;1.95;1.85;;;;;;;;;;5069635;28;20267;-61
2023/04/25 11:06:12;;;;;;;3.33;1.60;;;;;;;;;;5068778;28;20219;-61
2023/04/25 11:08:48;;;;;;;1.77;1.58;;;;;;;;;;5067348;28;20256;-60
2023/04/25 11:11:15;;;;;;;5.22;1.90;;;;;;;;;;5065457;28;20606;-61
2023/04/25 11:13:42;;;;;;;1.73;1.63;;;;;;;;;;5050624;28;20214;-60
2023/04/25 11:16:09;;;;;;;1.80;1.70;;;;;;;;;;5067886;28;20676;-60
2023/04/25 11:18:38;;;;;;;1.27;1.27;;;;;;;;;;5064019;28;20662;-60
2023/04/25 11:21:07;;;;;;;2.80;1.70;;;;;;;;;;5062204;28;20245;-60
2023/04/25 11:23:34;;;;;;;1.95;1.85;;;;;;;;;;5068518;28;20297;-60
2023/04/25 11:26:01;;;;;;;5.45;1.83;;;;;;;;;;5048572;28;20580;-60
2023/04/25 11:28:28;;;;;;;3.83;1.58;;;;;;;;;;5048681;28;20414;-60
2023/04/25 11:30:55;;;;;;;2.00;1.77;;;;;;;;;;5060404;28;20779;-60
2023/04/25 11:33:24;;;;;;;2.63;1.85;;;;;;;;;;5068975;28;20211;-61
2023/04/25 11:35:51;;;;;;;10.15;1.27;;;;;;;;;;5068695;28;20711;-62
2023/04/25 11:38:20;;;;;;;3.88;2.00;;;;;;;;;;5067758;28;20203;-61
2023/04/25 11:40:50;;;;;;;1.77;1.38;;;;;;;;;;5066974;28;20219;-62
2023/04/25 11:43:19;;;;;;;1.50;1.40;;;;;;;;;;5068831;28;20251;-62
2023/04/25 11:45:48;;;;;;;2.30;2.10;;;;;;;;;;5060040;28;20443;-63
2023/04/25 11:48:15;;;;;;;2.53;1.58;;;;;;;;;;5047630;28;20801;-63
2023/04/25 11:50:42;;;;;;;6.82;2.03;;;;;;;;;;5064440;28;20203;-64
2023/04/25 11:53:10;;;;;;;4.05;1.95;;;;;;;;;;5049078;28;20617;-63
2023/04/25 11:55:39;;;;;;;3.80;2.58;;;;;;;;;;5054442;28;20213;-68
2023/04/25 11:58:08;;;;;;;13.95;7.55;;;;;;;;;;5060213;28;20199;-63
2023/04/25 12:00:36;;;;;;;2.28;1.30;;;;;;;;;;5063467;28;20629;-62
2023/04/25 12:03:03;;;;;;;3.13;1.70;;;;;;;;;;5068626;28;20306;-62
2023/04/25 12:05:32;;;;;;;1.63;1.35;;;;;;;;;;5068676;28;20618;-63
2023/04/25 12:07:59;;;;;;;1.55;1.45;;;;;;;;;;5066399;28;20227;-62
2023/04/25 12:10:26;;;;;;;4.68;1.60;;;;;;;;;;5064598;28;20936;-63
2023/04/25 12:12:55;;;;;;;4.80;1.50;;;;;;;;;;5068256;28;20286;-63
2023/04/25 12:15:25;;;;;;;1.85;1.50;;;;;;;;;;5067101;28;20726;-63
2023/04/25 12:17:53;;;;;;;1.73;1.63;;;;;;;;;;5067824;28;20636;-63
2023/04/25 12:20:23;;;;;;;1.77;1.37;;;;;;;;;;5068060;28;20207;-63
2023/04/25 12:22:50;;;;;;;3.38;1.58;;;;;;;;;;5065511;28;20776;-63
2023/04/25 12:25:32;;;;;;;4.32;1.63;;;;;;;;;;5067528;28;20222;-63
2023/04/25 12:28:11;;;;;;;3.90;1.10;;;;;;;;;;5067216;28;20227;-63
2023/04/25 12:30:53;;;;;;;2.27;1.30;;;;;;;;;;5067317;28;20214;-63
2023/04/25 12:33:20;;;;;;;1.20;1.20;;;;;;;;;;5068148;28;20211;-64
2023/04/25 12:35:47;;;;;;;3.83;1.70;;;;;;;;;;5055438;28;20689;-65
2023/04/25 12:38:21;;;;;;;2.20;1.20;;;;;;;;;;5047728;28;20265;-64
2023/04/25 12:40:48;;;;;;;1.30;1.30;;;;;;;;;;5047405;28;20687;-64
2023/04/25 12:43:17;;;;;;;1.30;1.23;;;;;;;;;;5047828;28;20581;-63
2023/04/25 12:45:44;;;;;;;2.72;1.33;;;;;;;;;;5047516;28;20631;-64
2023/04/25 12:48:11;;;;;;;2.10;1.70;;;;;;;;;;5047355;28;20235;-64
2023/04/25 12:50:38;;;;;;;2.92;1.52;;;;;;;;;;5047626;28;20306;-64
2023/04/25 12:53:05;;;;;;;1.33;1.30;;;;;;;;;;5047042;28;20211;-64
2023/04/25 12:55:32;;;;;;;1.25;1.25;;;;;;;;;;5047692;28;20211;-64
2023/04/25 12:57:59;;;;;;;1.27;1.27;;;;;;;;;;5047202;28;20222;-64
2023/04/25 13:00:28;;;;;;;3.15;1.88;;;;;;;;;;5047195;28;20743;-63
2023/04/25 13:02:55;;;;;;;1.67;1.10;;;;;;;;;;5047108;28;20211;-64
2023/04/25 13:05:22;;;;;;;1.53;1.27;;;;;;;;;;5047106;28;20215;-64
2023/04/25 13:07:49;;;;;;;2.50;1.70;;;;;;;;;;5046892;28;20227;-64
2023/04/25 13:10:16;;;;;;;2.38;1.25;;;;;;;;;;5063242;28;20288;-64
2023/04/25 13:12:43;;;;;;;0.85;0.77;;;;;;;;;;5066435;28;20234;-65
2023/04/25 13:15:11;;;;;;;1.52;1.10;;;;;;;;;;5066899;28;20211;-64
2023/04/25 13:17:40;;;;;;;2.37;1.30;;;;;;;;;;5067015;28;20246;-64
2023/04/25 13:20:09;;;;;;;1.77;1.20;;;;;;;;;;5067184;28;20904;-65
2023/04/25 13:22:37;;;;;;;2.10;1.03;;;;;;;;;;5066747;28;20795;-64
2023/04/25 13:25:05;;;;;;;6.60;1.10;;;;;;;;;;5066718;28;20242;-64
2023/04/25 13:27:33;;;;;;;2.00;1.10;;;;;;;;;;5066888;28;20231;-64
2023/04/25 13:30:01;;;;;;;1.50;1.40;;;;;;;;;;5066766;28;20207;-64
2023/04/25 13:32:28;;;;;;;1.33;1.27;;;;;;;;;;5058244;28;20216;-61
2023/04/25 13:34:56;;;;;;;1.50;1.40;;;;;;;;;;5060611;28;20487;-64
2023/04/25 13:37:24;;;;;;;2.40;1.40;;;;;;;;;;5046909;28;20247;-62
2023/04/25 13:39:52;;;;;;;4.20;1.40;;;;;;;;;;5047865;28;20680;-63
2023/04/25 13:42:19;;;;;;;1.50;1.10;;;;;;;;;;5046596;28;20239;-63
2023/04/25 13:44:46;;;;;;;1.20;1.20;;;;;;;;;;5060435;28;20211;-62
2023/04/25 13:47:13;;;;;;;4.20;1.60;;;;;;;;;;5065781;28;20215;-62
2023/04/25 13:49:40;;;;;;;1.33;1.23;;;;;;;;;;5046436;28;20211;-60
2023/04/25 13:52:08;;;;;;;0.93;0.93;;;;;;;;;;5046771;28;20211;-68
2023/04/25 13:54:35;;;;;;;1.47;0.90;;;;;;;;;;5046396;28;20211;-62
2023/04/25 13:57:02;;;;;;;1.17;0.80;;;;;;;;;;5046274;28;20212;-62
2023/04/25 13:59:29;;;;;;;1.30;1.20;;;;;;;;;;5050292;28;20211;-63
2023/04/25 14:01:56;;;;;;;1.50;1.20;;;;;;;;;;5046271;28;20269;-64
2023/04/25 14:04:23;;;;;;;1.50;1.40;;;;;;;;;;5057265;28;20973;-63
2023/04/25 14:06:51;;;;;;;1.20;0.90;;;;;;;;;;5066599;28;20215;-64
2023/04/25 14:09:20;;;;;;;1.80;1.70;;;;;;;;;;5066350;28;20245;-63
2023/04/25 14:11:47;;;;;;;1.30;1.20;;;;;;;;;;5069479;28;20207;-63
2023/04/25 14:14:16;;;;;;;1.60;1.30;;;;;;;;;;5070645;28;20222;-63
2023/04/25 14:16:43;;;;;;;2.20;1.47;;;;;;;;;;5057711;28;20235;-62
2023/04/25 14:19:10;;;;;;;1.73;1.07;;;;;;;;;;5050247;28;20215;-62
2023/04/25 14:21:37;;;;;;;5.30;1.33;;;;;;;;;;5052784;28;20222;-62
2023/04/25 14:24:04;;;;;;;3.60;1.37;;;;;;;;;;5046075;28;20228;-62
2023/04/25 14:26:33;;;;;;;1.20;1.07;;;;;;;;;;5054291;28;20755;-62
2023/04/25 14:29:00;;;;;;;2.50;1.17;;;;;;;;;;5068743;28;20231;-62
2023/04/25 14:31:27;;;;;;;1.50;1.40;;;;;;;;;;5069471;28;20211;-62
2023/04/25 14:33:55;;;;;;;1.27;1.00;;;;;;;;;;5069785;28;20626;-62
2023/04/25 14:36:22;;;;;;;0.97;0.97;;;;;;;;;;5070115;28;20203;-62
2023/04/25 14:38:49;;;;;;;2.07;1.43;;;;;;;;;;5069142;28;20285;-62
2023/04/25 14:41:16;;;;;;;2.15;1.00;;;;;;;;;;5053638;28;20348;-63
2023/04/25 14:43:44;;;;;;;0.87;0.87;;;;;;;;;;5053587;28;20292;-63
2023/04/25 14:46:12;;;;;;;1.50;1.40;;;;;;;;;;5057613;28;20200;-65
2023/04/25 14:48:39;;;;;;;2.73;1.03;;;;;;;;;;5054854;28;20247;-62